Angola, New York
Current Conditions -  °F | °C
As of 9:53 PM on Friday 24 Oct 2014 (Local Time) from KDKK Reporting Station
Overcast Overcast  
Wind Chill: 51°   Ceiling: 6000
Heat Index: 51°   Visibility: 10mi
Dew Point: 46°   Wind: 8mph
Humidity: 83%   Direction: 220°SW
Pressure: 29.97"   Gusts: NA
Location:  42.64°N, 79.03°W
Report Text: KDKK 250153Z AUTO 22007KT 10SM OVC060 11/08 A2997 RMK AO2 SLP152 T01060078
Loading
Personal Weather Stations






























Interactive Weather Map
Tropical Storm Tracking
New forecast layout! Learn more

10-Day Weather Forecast

Advertisements
Track Severe Weather on mobile